Time;durP1;ratioP1;P1;durP2;ratioP2;P2;SDS_P1;SDS_P2;PMS_P1;PMS_P2;Temp;Humidity;BMP_temperature;BMP_pressure;BME280_temperature;BME280_humidity;BME280_pressure;Samples;Min_cycle;Max_cycle;Signal;HPM_P1;HPM_P2
2023/08/02 10:03:32;;;;;;;2.80;2.20;;;;;;;26.46;47.15;99207.04;1867956;76;26781;-68
2023/08/02 10:06:03;;;;;;;2.25;1.82;;;;;;;26.46;47.15;99207.04;1824604;78;25518;-67
2023/08/02 10:08:31;;;;;;;4.55;4.15;;;;;;;26.35;48.04;99195.50;1824455;78;27500;-66
2023/08/02 10:11:03;;;;;;;8.55;7.85;;;;;;;26.60;48.56;99183.63;1824450;78;25412;-66
2023/08/02 10:13:33;;;;;;;70.03;66.53;;;;;;;26.82;47.78;99183.73;1824562;78;25359;-66
2023/08/02 10:16:02;;;;;;;74.90;70.50;;;;;;;26.79;47.15;99188.16;1824415;78;25621;-66
2023/08/02 10:18:33;;;;;;;43.38;41.10;;;;;;;26.91;47.28;99185.19;1824507;78;25471;-66
2023/08/02 10:21:02;;;;;;;20.23;19.07;;;;;;;27.14;47.78;99184.03;1824521;78;29698;-66
2023/08/02 10:23:30;;;;;;;;;;;;;;;27.66;46.92;99183.20;1827059;78;25523;-66
2023/08/02 10:26:00;;;;;;;7.47;6.97;;;;;;;27.96;45.39;99179.56;1804125;78;25475;-65
2023/08/02 10:28:28;;;;;;;24.12;22.90;;;;;;;28.05;44.66;99184.39;1824386;78;25780;-66
2023/08/02 10:30:57;;;;;;;57.55;54.55;;;;;;;28.32;46.22;99176.16;1824600;78;25581;-67
2023/08/02 10:33:25;;;;;;;7.85;7.22;;;;;;;28.68;44.04;99178.14;1824562;78;27585;-68
2023/08/02 10:36:03;;;;;;;6.60;6.10;;;;;;;28.66;44.34;99166.09;1824534;78;25610;-67
2023/08/02 10:38:47;;;;;;;4.90;4.50;;;;;;;28.96;43.90;99162.28;1803880;78;25455;-68
2023/08/02 10:41:22;;;;;;;6.72;1.95;;;;;;;29.35;43.35;99166.77;1803932;78;25577;-65
2023/08/02 10:43:57;;;;;;;2.00;1.52;;;;;;;29.54;42.76;99158.39;1824510;78;25594;-67
2023/08/02 10:46:29;;;;;;;4.03;1.80;;;;;;;29.51;43.08;99164.30;1824344;78;27649;-65
2023/08/02 10:49:12;;;;;;;2.70;1.37;;;;;;;29.78;43.06;99151.55;1830030;78;25431;-67
2023/08/02 10:51:42;;;;;;;2.83;1.80;;;;;;;29.81;42.01;99157.59;1824030;78;25359;-66
2023/08/02 10:54:25;;;;;;;2.87;1.60;;;;;;;29.60;41.34;99160.09;1824353;78;25533;-65
2023/08/02 10:57:03;;;;;;;2.42;1.45;;;;;;;29.25;40.46;99154.09;1824427;78;25557;-65
2023/08/02 10:59:33;;;;;;;1.55;1.45;;;;;;;28.78;40.36;99149.11;1823359;78;27477;-65
2023/08/02 11:02:12;;;;;;;1.60;1.50;;;;;;;28.25;40.82;99146.48;1825745;78;25454;-65
2023/08/02 11:04:47;;;;;;;4.35;1.60;;;;;;;28.05;42.28;99139.92;1830477;78;25532;-64
2023/08/02 11:07:24;;;;;;;3.98;1.85;;;;;;;28.44;43.00;99132.02;1814239;78;25603;-64
2023/08/02 11:09:54;;;;;;;1.62;1.27;;;;;;;28.96;43.01;99138.63;1830565;78;25541;-65
2023/08/02 11:12:23;;;;;;;2.22;1.40;;;;;;;29.25;41.20;99131.81;1830465;78;27501;-65
2023/08/02 11:14:53;;;;;;;3.95;1.67;;;;;;;29.53;41.82;99121.41;1813680;78;26070;-64
2023/08/02 11:17:25;;;;;;;4.05;1.85;;;;;;;29.98;41.85;99121.77;1829945;78;25615;-65
2023/08/02 11:19:54;;;;;;;2.47;1.40;;;;;;;30.49;41.51;99119.52;1829933;77;25551;-64
2023/08/02 11:22:20;;;;;;;2.10;1.35;;;;;;;31.07;39.27;99126.41;1829891;78;25347;-65
2023/08/02 11:24:56;;;;;;;1.32;1.02;;;;;;;30.81;36.97;99118.52;1829811;78;29589;-65
2023/08/02 11:27:27;;;;;;;11.70;10.35;;;;;;;30.51;36.80;99113.46;1828888;77;25433;-62
2023/08/02 11:30:08;;;;;;;7.35;5.67;;;;;;;29.97;37.43;99107.06;1830042;78;25535;-62
2023/08/02 11:32:42;;;;;;;23.95;20.88;;;;;;;29.69;38.11;99109.14;1828654;77;25546;-63
2023/08/02 11:35:08;;;;;;;3.45;2.72;;;;;;;29.50;38.78;99100.06;1830132;78;25534;-69
2023/08/02 11:37:40;;;;;;;6.00;1.87;;;;;;;29.74;39.49;99111.92;1830104;77;27461;-65
2023/08/02 11:40:10;;;;;;;2.72;2.42;;;;;;;30.13;39.45;99111.47;1830033;78;25379;-65
2023/08/02 11:42:51;;;;;;;4.15;2.20;;;;;;;30.31;39.02;99112.64;1830011;78;25446;-65
2023/08/02 11:45:35;;;;;;;1.87;1.60;;;;;;;30.18;37.93;99117.03;1829870;77;25550;-67
2023/08/02 11:48:02;;;;;;;2.42;1.82;;;;;;;29.73;37.65;99113.94;1829907;77;25599;-66
2023/08/02 11:50:34;;;;;;;2.65;1.52;;;;;;;29.75;38.55;99113.47;1829846;77;28038;-67
2023/08/02 11:53:08;;;;;;;2.40;2.17;;;;;;;30.11;39.06;99117.38;1829788;77;25604;-70
2023/08/02 11:55:36;;;;;;;5.55;2.27;;;;;;;30.51;38.91;99123.22;1829859;77;25553;-69
2023/08/02 11:58:06;;;;;;;2.90;2.25;;;;;;;30.84;37.98;99119.61;1829986;78;25401;-70
2023/08/02 12:00:37;;;;;;;2.50;2.17;;;;;;;30.95;36.52;99110.06;1829880;78;25523;-69
2023/08/02 12:03:15;;;;;;;2.62;2.42;;;;;;;30.61;35.03;99116.97;1826350;77;27703;-69
2023/08/02 12:05:45;;;;;;;4.05;2.65;;;;;;;30.34;34.86;99112.47;1823840;78;25373;-69
2023/08/02 12:08:17;;;;;;;3.52;3.12;;;;;;;29.75;34.91;99105.12;1823710;78;25439;-69
2023/08/02 12:10:47;;;;;;;3.10;2.85;;;;;;;29.46;35.81;99103.64;1823693;78;25528;-69
2023/08/02 12:13:16;;;;;;;3.95;2.42;;;;;;;29.19;36.48;99100.28;1823751;78;25364;-69
2023/08/02 12:16:10;;;;;;;3.80;3.50;;;;;;;28.97;36.79;99101.19;1823669;78;27534;-69
2023/08/02 12:18:57;;;;;;;3.90;3.60;;;;;;;28.71;36.92;99104.11;1822839;78;25379;-70
2023/08/02 12:21:26;;;;;;;4.92;2.98;;;;;;;28.23;36.41;99105.84;1823622;78;25633;-68
2023/08/02 12:23:54;;;;;;;3.77;2.20;;;;;;;27.83;37.48;99104.59;1823752;78;25452;-69
2023/08/02 12:26:31;;;;;;;2.98;2.77;;;;;;;27.57;37.96;99116.50;1824033;78;25626;-70
2023/08/02 12:29:00;;;;;;;3.83;3.52;;;;;;;27.32;38.45;99115.41;1823714;78;28007;-70
2023/08/02 12:31:31;;;;;;;6.12;3.75;;;;;;;27.07;38.67;99117.66;1823631;78;25613;-70
2023/08/02 12:33:57;;;;;;;5.72;4.40;;;;;;;26.90;39.25;99120.45;1821889;78;25361;-69
2023/08/02 12:36:31;;;;;;;7.17;3.83;;;;;;;27.07;39.91;99116.89;1823643;78;25384;-70
2023/08/02 12:38:59;;;;;;;5.28;3.83;;;;;;;27.03;39.65;99112.23;1823725;78;25512;-70
2023/08/02 12:41:28;;;;;;;4.58;4.20;;;;;;;27.03;40.11;99114.24;1803167;78;27417;-70
2023/08/02 12:43:54;;;;;;;;;;;;;;;27.13;40.50;99103.38;1826257;78;25589;-71
2023/08/02 12:46:22;;;;;;;5.10;4.70;;;;;;;27.66;40.78;99100.50;1823755;77;25554;-69
2023/08/02 12:48:51;;;;;;;6.28;5.72;;;;;;;28.19;39.79;99103.84;1823910;78;32319;-67
2023/08/02 12:51:19;;;;;;;6.95;6.55;;;;;;;28.23;38.79;99107.23;1823856;78;25520;-68
2023/08/02 12:53:45;;;;;;;6.67;6.27;;;;;;;27.99;38.09;99094.50;1824067;78;28270;-68
2023/08/02 12:56:12;;;;;;;12.40;11.38;;;;;;;27.84;39.22;99090.08;1823533;78;25517;-64
2023/08/02 12:58:39;;;;;;;9.53;8.93;;;;;;;27.87;38.97;99090.56;1823732;78;25355;-64
2023/08/02 13:01:05;;;;;;;42.20;38.20;;;;;;;27.88;39.26;99093.50;1823670;78;25363;-62
2023/08/02 13:03:32;;;;;;;9.30;8.60;;;;;;;27.82;39.15;99094.73;1827431;78;25592;-63
2023/08/02 13:06:00;;;;;;;9.55;8.95;;;;;;;27.78;39.29;99087.13;1829756;77;28193;-67
2023/08/02 13:08:26;;;;;;;9.30;8.53;;;;;;;27.95;39.44;99088.45;1829613;77;25572;-67
2023/08/02 13:10:54;;;;;;;9.60;9.00;;;;;;;28.17;39.16;99080.66;1829735;77;25372;-66
2023/08/02 13:13:21;;;;;;;8.73;8.23;;;;;;;28.15;38.81;99085.91;1829839;78;26036;-66
2023/08/02 13:15:47;;;;;;;8.50;8.03;;;;;;;27.89;38.70;99081.94;1829746;78;25430;-66
2023/08/02 13:18:13;;;;;;;28.62;25.80;;;;;;;27.78;38.82;99080.19;1829667;78;27456;-63
2023/08/02 13:20:43;;;;;;;30.08;27.50;;;;;;;27.71;38.86;99076.30;1829180;77;27277;-64
2023/08/02 13:23:11;;;;;;;13.65;12.65;;;;;;;27.99;39.35;99072.27;1828501;77;25770;-62
2023/08/02 13:25:39;;;;;;;12.30;11.60;;;;;;;28.14;39.39;99071.84;1829751;78;25442;-63
2023/08/02 13:28:06;;;;;;;12.70;12.00;;;;;;;28.48;38.32;99074.23;1829977;77;25528;-65
2023/08/02 13:30:36;;;;;;;10.10;9.40;;;;;;;28.63;37.96;99076.60;1829834;78;27525;-64
2023/08/02 13:33:04;;;;;;;9.73;9.03;;;;;;;28.51;37.58;99074.09;1829872;77;25818;-64
2023/08/02 13:35:30;;;;;;;9.88;9.25;;;;;;;28.36;37.36;99060.62;1829800;78;25504;-66
2023/08/02 13:37:58;;;;;;;11.55;10.75;;;;;;;28.28;37.98;99072.67;1829709;78;25957;-66
2023/08/02 13:40:24;;;;;;;12.67;11.97;;;;;;;28.25;38.23;99063.86;1829926;77;25394;-65
2023/08/02 13:42:52;;;;;;;16.25;15.15;;;;;;;28.16;37.91;99062.43;1829680;78;27465;-65
2023/08/02 13:45:18;;;;;;;19.80;18.60;;;;;;;28.05;38.31;99062.87;1829896;77;25518;-65
2023/08/02 13:47:46;;;;;;;43.08;40.65;;;;;;;27.86;38.21;99066.18;1829912;77;25442;-65
2023/08/02 13:50:12;;;;;;;21.10;19.57;;;;;;;27.66;37.94;99053.28;1813084;78;25456;-65
2023/08/02 13:52:39;;;;;;;16.85;15.65;;;;;;;27.53;38.34;99052.77;1829779;78;25601;-65
2023/08/02 13:55:08;;;;;;;19.77;18.25;;;;;;;27.35;38.62;99054.06;1829642;77;27471;-65
2023/08/02 13:57:34;;;;;;;;;;;;;;;27.21;38.96;99052.56;1832416;78;25375;-66
2023/08/02 14:00:00;;;;;;;13.22;12.37;;;;;;;27.11;39.10;99070.38;1829712;77;25530;-67
2023/08/02 14:02:29;;;;;;;12.07;11.38;;;;;;;26.86;38.99;99067.10;1829421;77;26411;-66
2023/08/02 14:04:55;;;;;;;9.78;9.18;;;;;;;26.59;38.92;99069.14;1823804;78;25550;-65
2023/08/02 14:07:21;;;;;;;13.58;12.68;;;;;;;26.35;39.09;99049.98;1823628;78;27457;-65
2023/08/02 14:09:47;;;;;;;70.75;67.05;;;;;;;26.18;39.59;99052.89;1802580;78;25742;-66
2023/08/02 14:12:14;;;;;;;74.60;70.47;;;;;;;25.95;39.57;99043.55;1810390;78;25854;-65
2023/08/02 14:14:43;;;;;;;75.03;70.97;;;;;;;25.78;39.78;99042.27;1791516;80;25526;-67
2023/08/02 14:17:10;;;;;;;74.55;70.35;;;;;;;25.62;40.23;99040.36;1791616;79;25575;-67
2023/08/02 14:19:36;;;;;;;73.42;69.60;;;;;;;25.56;40.69;99043.53;1791250;79;27494;-71
2023/08/02 14:22:05;;;;;;;73.25;69.00;;;;;;;25.56;41.09;99037.20;1791109;79;25399;-71
2023/08/02 14:24:33;;;;;;;74.62;70.67;;;;;;;25.47;41.22;99041.42;1771414;80;25638;-71
2023/08/02 14:26:59;;;;;;;75.00;70.80;;;;;;;25.38;41.42;99042.66;1791233;80;25605;-72
2023/08/02 14:29:25;;;;;;;70.83;67.05;;;;;;;25.33;42.04;99039.83;1791290;80;25590;-71
2023/08/02 14:31:53;;;;;;;76.75;72.62;;;;;;;25.39;42.39;99040.66;1791296;80;27455;-71
2023/08/02 14:34:23;;;;;;;73.30;69.30;;;;;;;25.44;42.22;99036.77;1791167;79;25516;-71
2023/08/02 14:36:47;;;;;;;73.80;69.75;;;;;;;25.40;42.23;99036.08;1790449;79;25452;-71
2023/08/02 14:39:13;;;;;;;73.72;69.58;;;;;;;25.43;42.43;99038.58;1791136;80;25520;-71
2023/08/02 14:41:39;;;;;;;73.87;69.97;;;;;;;25.41;42.93;99033.48;1791200;80;25437;-71
2023/08/02 14:44:06;;;;;;;74.75;70.60;;;;;;;25.50;42.78;99031.44;1791122;80;28147;-71
2023/08/02 14:46:32;;;;;;;73.95;69.95;;;;;;;25.45;42.63;99029.99;1791052;79;25581;-71
2023/08/02 14:48:58;;;;;;;74.17;70.28;;;;;;;25.40;42.81;99027.00;1791224;80;25649;-71
2023/08/02 14:51:24;;;;;;;71.75;67.90;;;;;;;25.49;43.11;99031.30;1791283;80;25580;-72
2023/08/02 14:53:50;;;;;;;71.42;67.55;;;;;;;25.59;42.83;99024.66;1771033;80;25624;-71
2023/08/02 14:56:18;;;;;;;75.52;71.22;;;;;;;25.62;42.58;99029.91;1791380;79;27537;-71
2023/08/02 14:58:44;;;;;;;72.05;68.07;;;;;;;25.64;42.82;99019.95;1791420;79;25376;-71
2023/08/02 15:01:12;;;;;;;73.55;69.55;;;;;;;25.74;42.80;99026.36;1791494;79;25263;-71
2023/08/02 15:03:38;;;;;;;73.28;69.30;;;;;;;25.77;42.46;99019.17;1793592;79;25474;-71
2023/08/02 15:06:06;;;;;;;71.50;67.65;;;;;;;25.71;42.13;99022.49;1797300;79;25589;-72
2023/08/02 15:08:36;;;;;;;73.30;69.27;;;;;;;25.54;42.22;99023.20;1797610;79;28008;-73
2023/08/02 15:11:04;;;;;;;72.30;68.55;;;;;;;25.47;42.54;99028.17;1797142;79;25652;-72
2023/08/02 15:13:30;;;;;;;72.70;68.97;;;;;;;25.43;42.74;99024.13;1797492;79;25455;-71
2023/08/02 15:15:58;;;;;;;71.82;68.05;;;;;;;25.42;42.52;99024.56;1797262;79;25542;-71
2023/08/02 15:18:25;;;;;;;69.92;66.25;;;;;;;25.40;42.85;99028.39;1797425;79;25574;-71
2023/08/02 15:20:51;;;;;;;71.82;68.12;;;;;;;25.38;42.62;99030.83;1797288;79;27156;-71
2023/08/02 15:23:17;;;;;;;70.75;66.92;;;;;;;25.35;42.47;99025.55;1797193;79;25366;-71
2023/08/02 15:25:43;;;;;;;73.60;69.60;;;;;;;25.31;42.80;99024.89;1797379;79;25307;-71
2023/08/02 15:28:09;;;;;;;71.60;67.78;;;;;;;25.29;42.25;99010.73;1797342;79;25585;-72
2023/08/02 15:30:35;;;;;;;74.42;70.42;;;;;;;25.26;42.53;99018.52;1781259;79;25523;-71
2023/08/02 15:33:02;;;;;;;75.25;71.37;;;;;;;25.24;42.56;99020.31;1797292;79;27534;-71
2023/08/02 15:35:28;;;;;;;72.32;68.15;;;;;;;25.28;42.75;99017.47;1797194;79;25529;-71
2023/08/02 15:37:54;;;;;;;72.58;68.70;;;;;;;25.31;42.60;99019.36;1796830;79;25135;-70
2023/08/02 15:40:21;;;;;;;73.67;69.85;;;;;;;25.35;42.90;99023.58;1797194;79;25562;-70
2023/08/02 15:42:48;;;;;;;73.35;69.42;;;;;;;25.41;42.43;99016.11;1797219;79;25578;-69
2023/08/02 15:45:14;;;;;;;71.28;67.58;;;;;;;25.39;42.19;99021.30;1797210;79;27535;-69
2023/08/02 15:47:40;;;;;;;74.77;70.83;;;;;;;25.37;42.17;99019.58;1797065;79;25610;-70
2023/08/02 15:50:09;;;;;;;73.33;69.42;;;;;;;25.28;42.19;99011.93;1797270;79;25388;-69
2023/08/02 15:52:35;;;;;;;73.02;69.22;;;;;;;25.21;42.31;99010.73;1797182;79;25569;-69
2023/08/02 15:55:01;;;;;;;73.17;69.27;;;;;;;25.11;42.44;99013.35;1797246;79;25391;-69
2023/08/02 15:57:27;;;;;;;72.55;68.75;;;;;;;25.04;42.60;99007.27;1797127;79;27962;-69
2023/08/02 15:59:54;;;;;;;73.80;69.72;;;;;;;24.94;42.76;99006.34;1781107;79;25461;-69
2023/08/02 16:02:20;;;;;;;75.32;71.37;;;;;;;24.82;42.93;99004.33;1797154;79;25432;-69
2023/08/02 16:04:46;;;;;;;75.37;71.40;;;;;;;24.70;43.09;98999.69;1792643;79;25601;-69
2023/08/02 16:07:13;;;;;;;72.47;68.57;;;;;;;24.60;43.47;98990.49;1791430;79;25601;-67
2023/08/02 16:09:39;;;;;;;81.35;76.12;;;;;;;24.54;43.67;98990.84;1791343;79;27520;-66
2023/08/02 16:12:08;;;;;;;84.30;79.27;;;;;;;24.49;43.76;98990.58;1791179;79;25488;-66
2023/08/02 16:14:34;;;;;;;;;;;;;;;24.39;43.94;98994.55;1793973;80;25537;-66
2023/08/02 16:17:00;;;;;;;78.42;73.78;;;;;;;24.34;44.29;98985.41;1791303;80;25591;-66
2023/08/02 16:19:27;;;;;;;81.82;77.03;;;;;;;24.28;44.60;98981.64;1791446;80;25535;-66
2023/08/02 16:21:53;;;;;;;79.45;74.72;;;;;;;24.23;44.51;98979.41;1791476;79;27480;-66
2023/08/02 16:24:19;;;;;;;75.72;71.53;;;;;;;24.20;44.69;98971.98;1791276;79;25629;-65
2023/08/02 16:26:45;;;;;;;74.97;70.87;;;;;;;24.19;45.01;98967.66;1791452;80;25536;-70
2023/08/02 16:29:11;;;;;;;74.92;70.85;;;;;;;24.19;45.14;98964.89;1791433;80;25682;-72
2023/08/02 16:31:38;;;;;;;73.50;69.50;;;;;;;24.22;45.23;98966.17;1791528;80;25559;-72
2023/08/02 16:34:04;;;;;;;74.80;70.70;;;;;;;24.26;45.38;98968.84;1791562;79;27379;-72
2023/08/02 16:36:30;;;;;;;58.08;55.00;;;;;;;24.28;45.36;98968.41;1791319;79;25622;-74
2023/08/02 16:38:56;;;;;;;72.67;68.80;;;;;;;24.26;45.40;98970.22;1791323;79;25555;-72
2023/08/02 16:41:22;;;;;;;74.62;70.72;;;;;;;24.25;45.38;98972.83;1791365;79;25569;-73
2023/08/02 16:43:49;;;;;;;74.77;70.37;;;;;;;24.20;45.52;98978.27;1791484;80;25542;-70
2023/08/02 16:46:15;;;;;;;75.67;71.72;;;;;;;24.19;45.71;98973.17;1791648;79;28094;-70
2023/08/02 16:48:41;;;;;;;75.55;71.45;;;;;;;24.20;45.85;98963.69;1771629;80;25459;-71
2023/08/02 16:51:09;;;;;;;74.95;70.80;;;;;;;24.21;45.95;98971.55;1791527;79;25455;-66
2023/08/02 16:53:35;;;;;;;75.67;71.67;;;;;;;24.22;46.04;98968.94;1791413;79;25461;-66
2023/08/02 16:56:01;;;;;;;74.37;70.40;;;;;;;24.24;46.11;98970.66;1791459;79;25429;-65
2023/08/02 16:58:27;;;;;;;75.97;71.37;;;;;;;24.22;46.07;98970.94;1791327;79;27545;-64
2023/08/02 17:00:56;;;;;;;73.55;69.35;;;;;;;24.18;46.10;98970.26;1791412;79;25593;-68
2023/08/02 17:03:22;;;;;;;73.52;69.62;;;;;;;24.15;46.13;98966.98;1791331;78;25567;-67
2023/08/02 17:05:48;;;;;;;76.62;72.30;;;;;;;24.13;46.26;98971.55;1794590;79;25475;-68
2023/08/02 17:08:16;;;;;;;74.45;70.45;;;;;;;24.10;46.26;98966.13;1794722;80;25522;-66
2023/08/02 17:10:42;;;;;;;76.75;72.32;;;;;;;24.08;46.41;98965.78;1794583;79;27524;-67
2023/08/02 17:13:09;;;;;;;78.83;74.42;;;;;;;24.04;46.54;98967.23;1794502;80;25711;-66
2023/08/02 17:15:35;;;;;;;77.32;72.95;;;;;;;24.02;46.85;98964.13;1794558;79;25634;-67
2023/08/02 17:18:01;;;;;;;72.58;68.62;;;;;;;23.97;47.05;98962.69;1794647;79;25544;-67
2023/08/02 17:20:31;;;;;;;73.78;69.67;;;;;;;23.91;47.00;98954.73;1794612;80;25182;-66
2023/08/02 17:22:56;;;;;;;74.82;70.85;;;;;;;23.89;46.99;98953.61;1794173;79;27569;-65
2023/08/02 17:25:22;;;;;;;77.67;73.57;;;;;;;23.84;47.21;98953.54;1794464;80;25508;-65
2023/08/02 17:27:48;;;;;;;75.45;71.30;;;;;;;23.80;47.67;98955.56;1794531;80;25528;-66
2023/08/02 17:30:17;;;;;;;75.22;70.87;;;;;;;23.77;47.90;98957.80;1794612;80;25603;-66
2023/08/02 17:32:45;;;;;;;74.42;70.22;;;;;;;23.74;48.19;98955.31;1779111;80;25596;-67
2023/08/02 17:35:11;;;;;;;78.02;73.72;;;;;;;23.69;48.44;98957.98;1795041;80;27584;-67
2023/08/02 17:37:42;;;;;;;81.92;77.17;;;;;;;23.67;48.30;98959.02;1794755;80;25614;-65
2023/08/02 17:40:11;;;;;;;75.85;71.65;;;;;;;23.63;48.45;98952.82;1794918;80;25622;-66
2023/08/02 17:42:37;;;;;;;79.65;74.75;;;;;;;23.58;48.55;98948.39;1794809;79;26292;-67
2023/08/02 17:45:08;;;;;;;78.40;74.10;;;;;;;23.50;48.45;98945.81;1794849;80;25194;-66
2023/08/02 17:47:34;;;;;;;77.75;73.12;;;;;;;23.45;48.93;98942.19;1794851;80;27537;-66
2023/08/02 17:50:00;;;;;;;75.92;71.72;;;;;;;23.39;48.96;98941.13;1794783;80;25178;-66
2023/08/02 17:52:26;;;;;;;79.82;75.32;;;;;;;23.31;49.07;98941.14;1794874;79;25575;-65
2023/08/02 17:54:53;;;;;;;78.30;74.00;;;;;;;23.25;49.41;98953.27;1794844;80;25614;-70
2023/08/02 17:57:19;;;;;;;75.87;71.60;;;;;;;23.21;49.83;98951.20;1794611;80;25460;-69
2023/08/02 17:59:53;;;;;;;78.83;74.62;;;;;;;23.13;50.08;98951.94;1794579;80;27473;-69
2023/08/02 18:02:21;;;;;;;76.70;72.53;;;;;;;23.06;50.10;98959.61;1794563;80;25671;-67
2023/08/02 18:04:55;;;;;;;77.32;73.12;;;;;;;23.02;50.53;98967.13;1795699;78;25416;-66
2023/08/02 18:07:21;;;;;;;77.72;73.47;;;;;;;22.96;50.79;98970.99;1797305;79;25547;-67
2023/08/02 18:09:51;;;;;;;2.77;2.58;;;;;;;22.84;51.08;98973.79;1797292;79;25626;-68
2023/08/02 18:12:20;;;;;;;5.55;2.55;;;;;;;22.79;51.71;98977.04;1797292;79;27418;-68
2023/08/02 18:14:46;;;;;;;4.12;2.83;;;;;;;22.70;51.31;98988.63;1797193;79;25421;-68
2023/08/02 18:17:13;;;;;;;5.17;2.92;;;;;;;22.63;51.58;98990.15;1781638;79;25384;-68
2023/08/02 18:19:39;;;;;;;4.62;2.42;;;;;;;22.56;52.22;98988.91;1797123;79;25678;-70
2023/08/02 18:22:05;;;;;;;5.53;4.28;;;;;;;22.48;52.32;98986.11;1797250;79;25614;-72
2023/08/02 18:24:31;;;;;;;4.17;2.92;;;;;;;22.37;52.56;98978.81;1797430;79;28056;-71
2023/08/02 18:26:58;;;;;;;5.65;2.70;;;;;;;22.29;52.83;98973.86;1797351;79;25614;-73
2023/08/02 18:29:24;;;;;;;9.70;9.00;;;;;;;22.15;52.68;98963.81;1797397;79;25610;-71
2023/08/02 18:31:54;;;;;;;45.15;42.55;;;;;;;22.09;53.01;98969.03;1797930;79;25440;-76
2023/08/02 18:34:20;;;;;;;67.87;64.05;;;;;;;22.02;53.24;98977.41;1797642;79;25617;-67
2023/08/02 18:36:46;;;;;;;76.95;72.20;;;;;;;21.93;53.39;98980.70;1797222;79;27522;-66
2023/08/02 18:39:12;;;;;;;84.32;79.42;;;;;;;21.85;53.49;98980.63;1797089;79;27345;-67
2023/08/02 18:41:39;;;;;;;75.75;71.57;;;;;;;21.76;53.93;98980.37;1797346;79;25443;-71
2023/08/02 18:44:06;;;;;;;81.87;77.17;;;;;;;21.68;54.29;98985.82;1797234;79;25493;-69
2023/08/02 18:46:37;;;;;;;79.37;74.85;;;;;;;21.59;54.14;98993.99;1797235;79;25507;-70
2023/08/02 18:49:03;;;;;;;82.50;77.70;;;;;;;21.52;54.86;98992.73;1797231;79;27463;-67
2023/08/02 18:51:30;;;;;;;79.70;75.12;;;;;;;21.42;54.66;98989.50;1797094;79;25940;-66
2023/08/02 18:53:58;;;;;;;81.45;76.67;;;;;;;21.34;54.93;98990.18;1797202;79;25633;-68
2023/08/02 18:56:24;;;;;;;80.60;76.00;;;;;;;21.26;55.36;98981.23;1797096;79;25532;-68
2023/08/02 18:58:51;;;;;;;81.30;76.42;;;;;;;21.16;55.46;98983.53;1781039;79;25570;-68
2023/08/02 19:01:18;;;;;;;78.80;74.20;;;;;;;21.07;56.07;98980.52;1797141;79;27481;-68
2023/08/02 19:03:46;;;;;;;78.85;74.12;;;;;;;20.99;56.25;98980.41;1781525;79;26143;-68
2023/08/02 19:06:13;;;;;;;78.60;74.05;;;;;;;20.90;56.46;98980.91;1772525;80;25577;-68
2023/08/02 19:08:40;;;;;;;82.78;77.85;;;;;;;20.85;56.97;98985.49;1791381;80;25491;-67
2023/08/02 19:11:23;;;;;;;80.57;75.87;;;;;;;20.79;57.00;98987.13;1791509;79;25594;-68
2023/08/02 19:13:52;;;;;;;79.87;75.22;;;;;;;20.71;57.44;98983.09;1791431;79;27490;-67
2023/08/02 19:16:22;;;;;;;82.62;77.85;;;;;;;20.66;57.79;98984.14;1791527;80;27365;-67
2023/08/02 19:18:51;;;;;;;79.80;75.15;;;;;;;20.56;57.89;98984.40;1791577;80;25237;-68
2023/08/02 19:21:19;;;;;;;81.05;76.17;;;;;;;20.47;58.02;98980.77;1791454;80;25543;-68
2023/08/02 19:23:47;;;;;;;43.63;39.98;;;;;;;20.43;58.43;98977.86;1791389;80;25382;-68
2023/08/02 19:26:18;;;;;;;10.78;6.97;;;;;;;20.38;58.24;98983.22;1791518;80;28349;-67
2023/08/02 19:28:46;;;;;;;10.03;7.47;;;;;;;20.32;58.94;98980.11;1760032;81;25542;-67
2023/08/02 19:31:16;;;;;;;13.20;10.65;;;;;;;20.24;58.80;98977.84;1760132;81;25374;-67
2023/08/02 19:33:45;;;;;;;11.95;10.08;;;;;;;20.19;59.89;98983.17;1760045;81;25508;-67
2023/08/02 19:36:22;;;;;;;10.00;9.08;;;;;;;20.13;59.60;98979.33;1760219;81;25186;-68
2023/08/02 19:38:51;;;;;;;10.68;9.60;;;;;;;20.07;59.91;98983.08;1759792;81;29537;-68
2023/08/02 19:41:27;;;;;;;12.07;11.10;;;;;;;20.04;60.02;98988.03;1741009;81;26148;-68
2023/08/02 19:43:55;;;;;;;24.35;22.62;;;;;;;20.02;60.32;98984.11;1760085;81;25590;-68
2023/08/02 19:46:22;;;;;;;35.13;32.90;;;;;;;19.96;60.57;98979.66;1760097;81;26208;-67
2023/08/02 19:48:48;;;;;;;9.78;7.37;;;;;;;19.93;60.89;98981.84;1760164;81;25618;-68
2023/08/02 19:51:16;;;;;;;37.95;35.45;;;;;;;19.90;60.85;98982.64;1766544;81;27616;-67
2023/08/02 19:53:46;;;;;;;60.13;56.63;;;;;;;19.89;60.95;98984.61;1760294;81;25894;-67
2023/08/02 19:56:17;;;;;;;78.10;73.45;;;;;;;19.85;61.14;98982.47;1760222;81;25538;-68
2023/08/02 19:58:44;;;;;;;79.90;74.92;;;;;;;19.83;61.63;98974.47;1760170;81;25628;-67
2023/08/02 20:01:12;;;;;;;83.70;78.60;;;;;;;19.76;61.85;98971.18;1760140;81;25578;-67
2023/08/02 20:03:40;;;;;;;85.83;80.50;;;;;;;19.74;62.01;98976.27;1760034;81;27577;-66
2023/08/02 20:06:08;;;;;;;14.18;12.93;;;;;;;19.69;61.96;98969.23;1760094;79;25543;-67
2023/08/02 20:08:37;;;;;;;25.02;22.95;;;;;;;19.69;62.15;98967.09;1760180;81;25556;-63
2023/08/02 20:11:07;;;;;;;44.85;39.35;;;;;;;19.66;62.36;98965.16;1760254;81;25513;-64
2023/08/02 20:13:40;;;;;;;91.28;85.12;;;;;;;19.64;62.62;98966.16;1760158;81;25612;-64
2023/08/02 20:16:22;;;;;;;85.35;79.92;;;;;;;19.62;62.92;98966.55;1760140;81;27702;-67
2023/08/02 20:18:53;;;;;;;84.30;78.45;;;;;;;19.57;62.89;98960.89;1760048;81;25596;-65
2023/08/02 20:21:23;;;;;;;87.35;82.35;;;;;;;19.57;62.88;98968.34;1760084;81;25606;-68
2023/08/02 20:24:01;;;;;;;82.00;76.80;;;;;;;19.57;63.34;98965.01;1760074;81;25550;-66
2023/08/02 20:26:29;;;;;;;81.63;76.75;;;;;;;19.55;63.47;98967.38;1760190;81;25602;-65
2023/08/02 20:28:57;;;;;;;83.25;77.67;;;;;;;19.55;63.46;98969.34;1760098;81;27924;-65
2023/08/02 20:31:36;;;;;;;80.43;75.60;;;;;;;19.54;63.57;98963.06;1760168;81;25722;-66
2023/08/02 20:34:02;;;;;;;83.67;78.65;;;;;;;19.53;63.65;98960.15;1759366;81;25183;-66
2023/08/02 20:36:29;;;;;;;84.42;79.55;;;;;;;19.52;63.74;98957.80;1760187;81;25503;-64
2023/08/02 20:38:59;;;;;;;84.55;79.55;;;;;;;19.47;63.94;98955.48;1760052;81;25475;-66
2023/08/02 20:41:28;;;;;;;82.90;78.12;;;;;;;19.49;63.93;98954.48;1760073;81;27969;-66
2023/08/02 20:43:58;;;;;;;;;;;;;;;19.47;63.93;98966.45;1762541;81;25450;-65
2023/08/02 20:46:29;;;;;;;83.70;78.65;;;;;;;19.46;64.16;98960.20;1759740;81;25435;-64
2023/08/02 20:49:00;;;;;;;83.20;78.35;;;;;;;19.43;64.17;98951.40;1759906;81;25635;-65
2023/08/02 20:51:28;;;;;;;85.20;79.85;;;;;;;19.40;64.20;98952.20;1740923;81;25653;-64
2023/08/02 20:53:56;;;;;;;84.45;79.32;;;;;;;19.36;64.19;98949.48;1759959;81;27532;-65
2023/08/02 20:56:25;;;;;;;84.03;78.90;;;;;;;19.32;64.47;98948.70;1759829;81;25407;-65
2023/08/02 20:58:51;;;;;;;61.48;57.67;;;;;;;19.29;64.54;98945.98;1759947;81;25362;-65
2023/08/02 21:01:18;;;;;;;8.58;4.95;;;;;;;19.27;64.61;98946.98;1759916;81;26124;-67
2023/08/02 21:03:45;;;;;;;67.20;52.15;;;;;;;19.25;64.83;98947.98;1759983;81;25543;-64
2023/08/02 21:06:12;;;;;;;29.25;22.60;;;;;;;19.22;65.23;98942.69;1763435;80;29689;-63
2023/08/02 21:08:45;;;;;;;15.32;9.55;;;;;;;19.20;65.11;98938.98;1765551;81;25417;-65
2023/08/02 21:11:11;;;;;;;9.20;6.03;;;;;;;19.17;65.13;98936.27;1765705;80;25461;-65
2023/08/02 21:13:37;;;;;;;10.72;5.55;;;;;;;19.14;65.42;98924.75;1765553;80;25489;-65
2023/08/02 21:16:13;;;;;;;6.10;4.80;;;;;;;19.10;65.48;98923.38;1765553;81;25523;-64
2023/08/02 21:18:42;;;;;;;6.20;4.70;;;;;;;19.07;65.70;98926.94;1765556;81;27483;-65
2023/08/02 21:21:12;;;;;;;5.75;4.30;;;;;;;19.06;65.83;98925.37;1765503;80;25934;-62
2023/08/02 21:23:41;;;;;;;7.58;4.87;;;;;;;19.01;65.86;98923.81;1765618;81;25463;-63
2023/08/02 21:26:22;;;;;;;6.45;5.10;;;;;;;18.99;66.13;98917.19;1765710;80;30564;-64
2023/08/02 21:28:51;;;;;;;8.18;4.30;;;;;;;18.98;66.21;98925.20;1765630;80;25425;-63
2023/08/02 21:31:19;;;;;;;8.35;5.17;;;;;;;18.94;66.37;98916.23;1765700;81;27568;-65
